createdAt,value
2023-11-20T00:00:13.164Z,2.70
2023-11-20T00:01:13.334Z,2.90
2023-11-20T00:02:13.158Z,2.20
2023-11-20T00:03:13.281Z,2.50
2023-11-20T00:04:13.164Z,2.40
2023-11-20T00:05:13.252Z,3.10
2023-11-20T00:06:13.073Z,2.40
2023-11-20T00:07:13.079Z,2.50
2023-11-20T00:08:13.101Z,2.60
2023-11-20T00:09:13.006Z,1.90
2023-11-20T00:10:13.002Z,2.00
2023-11-20T00:11:13.001Z,2.10
2023-11-20T00:12:12.988Z,1.90
2023-11-20T00:13:13.007Z,1.80
2023-11-20T00:14:12.969Z,2.40
2023-11-20T00:15:12.963Z,1.90
2023-11-20T00:16:13.393Z,2.40
2023-11-20T00:17:12.885Z,2.00
2023-11-20T00:18:12.959Z,2.20
2023-11-20T00:19:13.014Z,2.20
2023-11-20T00:20:12.857Z,2.90
2023-11-20T00:21:12.909Z,1.90
2023-11-20T00:22:12.856Z,1.70
2023-11-20T00:23:12.816Z,2.30
2023-11-20T00:24:12.892Z,1.90
2023-11-20T00:25:12.865Z,1.80
2023-11-20T00:26:12.838Z,2.30
2023-11-20T00:27:12.808Z,2.10
2023-11-20T00:28:12.802Z,2.60
2023-11-20T00:29:12.788Z,2.00
2023-11-20T00:30:12.832Z,2.40
2023-11-20T00:31:12.782Z,2.40
2023-11-20T00:32:12.772Z,2.50
2023-11-20T00:33:12.883Z,1.90
2023-11-20T00:34:12.971Z,2.30
2023-11-20T00:35:12.671Z,2.90
2023-11-20T00:36:12.688Z,2.30
2023-11-20T00:37:12.632Z,2.40
2023-11-20T00:38:12.685Z,2.50
2023-11-20T00:39:12.598Z,2.10
2023-11-20T00:40:12.771Z,2.40
2023-11-20T00:41:12.569Z,3.00
2023-11-20T00:42:12.587Z,2.80
2023-11-20T00:43:12.591Z,2.30
2023-11-20T00:44:12.542Z,2.40
2023-11-20T00:45:12.622Z,2.30
2023-11-20T00:46:12.615Z,3.10
2023-11-20T00:47:12.510Z,2.10
2023-11-20T00:48:12.517Z,2.60
2023-11-20T00:49:12.543Z,2.50
2023-11-20T00:50:12.504Z,2.00
2023-11-20T00:51:12.424Z,2.60
2023-11-20T00:52:12.482Z,2.10
2023-11-20T00:53:12.414Z,2.50
2023-11-20T00:54:12.442Z,2.80
2023-11-20T00:55:12.664Z,2.20
2023-11-20T00:56:12.396Z,2.20
2023-11-20T00:57:12.370Z,2.60
2023-11-20T00:58:12.447Z,2.30
2023-11-20T00:59:12.338Z,1.80
2023-11-20T01:00:12.338Z,2.30
2023-11-20T01:01:12.423Z,2.30
2023-11-20T01:02:12.457Z,2.10
2023-11-20T01:03:12.565Z,2.20
2023-11-20T01:04:12.514Z,2.00
2023-11-20T01:05:12.294Z,3.40
2023-11-20T01:06:12.281Z,2.40
2023-11-20T01:07:12.356Z,2.70
2023-11-20T01:08:12.383Z,2.40
2023-11-20T01:09:12.205Z,2.60
2023-11-20T01:10:12.287Z,2.50
2023-11-20T01:11:12.174Z,1.90
2023-11-20T01:12:12.281Z,2.30
2023-11-20T01:13:12.266Z,2.60
2023-11-20T01:14:12.146Z,2.40
2023-11-20T01:15:12.202Z,1.80
2023-11-20T01:16:12.221Z,2.00
2023-11-20T01:17:12.145Z,2.40
2023-11-20T01:18:12.169Z,2.90
2023-11-20T01:19:12.179Z,2.60
2023-11-20T01:20:12.347Z,2.70
2023-11-20T01:21:12.062Z,2.40
2023-11-20T01:22:12.235Z,2.20
2023-11-20T01:23:12.051Z,2.30
2023-11-20T01:24:12.017Z,2.70
2023-11-20T01:25:12.158Z,2.80
2023-11-20T01:26:11.988Z,2.60
2023-11-20T01:27:12.080Z,1.90
2023-11-20T01:28:11.986Z,2.40
2023-11-20T01:29:11.972Z,2.70
2023-11-20T01:30:12.055Z,2.70
2023-11-20T01:31:11.983Z,2.20
2023-11-20T01:32:11.888Z,2.80
2023-11-20T01:33:15.266Z,2.10
2023-11-20T01:34:11.982Z,2.90
2023-11-20T01:35:11.946Z,2.20
2023-11-20T01:36:11.806Z,2.20
2023-11-20T01:37:11.909Z,3.00
2023-11-20T01:38:11.865Z,2.50
2023-11-20T01:39:11.804Z,2.10
2023-11-20T01:40:11.799Z,2.10
2023-11-20T01:41:11.973Z,2.10
2023-11-20T01:42:11.794Z,2.60
2023-11-20T01:43:11.799Z,2.20
2023-11-20T01:44:12.399Z,2.40
2023-11-20T01:45:11.923Z,2.10
2023-11-20T01:46:11.778Z,1.40
2023-11-20T01:47:11.810Z,2.70
2023-11-20T01:48:11.734Z,1.80
2023-11-20T01:49:11.867Z,2.40
2023-11-20T01:50:11.697Z,2.70
2023-11-20T01:51:11.749Z,1.80
2023-11-20T01:52:11.644Z,2.50
2023-11-20T01:54:02.408Z,2.60
2023-11-20T01:54:12.674Z,2.30
2023-11-20T01:55:11.789Z,1.40
2023-11-20T01:56:11.614Z,3.30
2023-11-20T01:57:11.585Z,3.30
2023-11-20T01:58:11.648Z,3.10
2023-11-20T01:59:11.793Z,2.50
2023-11-20T02:00:11.612Z,2.30
2023-11-20T02:01:11.726Z,2.10
2023-11-20T02:02:11.563Z,3.40
2023-11-20T02:03:11.722Z,2.40
2023-11-20T02:04:11.593Z,2.10
2023-11-20T02:05:11.554Z,1.50
2023-11-20T02:06:11.430Z,2.30
2023-11-20T02:07:11.472Z,2.00
2023-11-20T02:08:11.531Z,2.60
2023-11-20T02:09:11.514Z,2.50
2023-11-20T02:10:11.550Z,1.70
2023-11-20T02:11:11.494Z,2.80
2023-11-20T02:12:11.341Z,2.20
2023-11-20T02:13:11.430Z,2.00
2023-11-20T02:14:11.376Z,2.60
2023-11-20T02:15:11.340Z,2.30
2023-11-20T02:16:11.398Z,2.30
2023-11-20T02:17:11.414Z,2.20
2023-11-20T02:18:11.296Z,2.40
2023-11-20T02:19:11.353Z,1.80
2023-11-20T02:20:11.291Z,2.20
2023-11-20T02:21:11.390Z,2.10
2023-11-20T02:22:11.367Z,1.80
2023-11-20T02:23:11.351Z,2.80
2023-11-20T02:24:11.224Z,2.70
2023-11-20T02:25:11.238Z,2.50
2023-11-20T02:26:11.208Z,2.30
2023-11-20T02:27:11.230Z,2.50
2023-11-20T02:28:11.234Z,3.10
2023-11-20T02:29:11.246Z,2.20
2023-11-20T02:30:11.195Z,2.60
2023-11-20T02:31:11.301Z,2.10
2023-11-20T02:32:11.081Z,2.50
2023-11-20T02:33:11.099Z,2.40
2023-11-20T02:34:11.127Z,3.00
2023-11-20T02:35:11.133Z,3.00
2023-11-20T02:36:11.109Z,1.50
2023-11-20T02:37:11.108Z,1.70
2023-11-20T02:38:10.999Z,1.90
2023-11-20T02:39:11.032Z,2.50
2023-11-20T02:40:11.070Z,1.80
2023-11-20T02:41:11.019Z,2.60
2023-11-20T02:42:33.970Z,1.70
2023-11-20T02:43:12.077Z,1.60
2023-11-20T02:44:10.931Z,1.80
2023-11-20T02:45:10.990Z,2.10
2023-11-20T02:46:10.921Z,2.50
2023-11-20T02:47:11.040Z,2.10
2023-11-20T02:48:10.902Z,2.70
2023-11-20T02:49:11.001Z,1.90
2023-11-20T02:50:10.886Z,2.70
2023-11-20T02:51:10.891Z,2.40
2023-11-20T02:52:10.879Z,2.80
2023-11-20T02:53:10.944Z,2.40
2023-11-20T02:54:10.808Z,2.20
2023-11-20T02:55:10.851Z,1.90
2023-11-20T02:56:10.992Z,1.90
2023-11-20T02:57:10.800Z,2.00
2023-11-20T02:58:10.854Z,2.10
2023-11-20T02:59:10.904Z,1.40
2023-11-20T03:00:10.888Z,2.70
2023-11-20T03:01:10.825Z,1.40
2023-11-20T03:02:10.843Z,2.30
2023-11-20T03:03:10.796Z,1.60
2023-11-20T03:04:10.673Z,2.30
2023-11-20T03:05:10.738Z,2.40
2023-11-20T03:06:10.649Z,2.60
2023-11-20T03:07:10.754Z,1.80
2023-11-20T03:08:10.606Z,2.40
2023-11-20T03:09:10.647Z,2.10
2023-11-20T03:10:10.651Z,1.60
2023-11-20T03:11:13.532Z,2.00
2023-11-20T03:12:10.583Z,1.90
2023-11-20T03:13:10.667Z,2.10
2023-11-20T03:14:10.625Z,1.60
2023-11-20T03:15:10.707Z,1.90
2023-11-20T03:16:10.684Z,3.10
2023-11-20T03:17:19.814Z,1.50
2023-11-20T03:18:19.055Z,1.80
2023-11-20T03:19:18.092Z,2.90
2023-11-20T03:20:20.082Z,2.50
2023-11-20T03:21:19.062Z,2.50
2023-11-20T03:22:20.777Z,2.20
2023-11-20T03:23:17.927Z,2.10
2023-11-20T03:24:18.898Z,2.40
2023-11-20T03:25:18.999Z,2.50
2023-11-20T03:26:10.443Z,2.50
2023-11-20T03:27:10.465Z,1.90
2023-11-20T03:28:10.439Z,1.60
2023-11-20T03:29:10.412Z,1.80
2023-11-20T03:30:10.380Z,2.70
2023-11-20T03:31:10.493Z,1.90
2023-11-20T03:32:10.332Z,1.30
2023-11-20T03:33:19.456Z,2.20
2023-11-20T03:34:17.766Z,1.70
2023-11-20T03:35:17.851Z,2.20
2023-11-20T03:36:10.276Z,1.70
2023-11-20T03:37:10.345Z,1.30
2023-11-20T03:38:10.312Z,1.70
2023-11-20T03:39:10.337Z,1.30
2023-11-20T03:40:10.239Z,1.30
2023-11-20T03:41:10.332Z,1.40
2023-11-20T03:42:10.211Z,2.90
2023-11-20T03:43:10.260Z,1.00
2023-11-20T03:44:10.159Z,1.80
2023-11-20T03:45:10.218Z,2.10
2023-11-20T03:46:10.267Z,2.80
2023-11-20T03:47:10.270Z,1.50
2023-11-20T03:48:10.076Z,1.80
2023-11-20T03:49:10.175Z,2.50
2023-11-20T03:50:10.291Z,1.90
2023-11-20T03:51:10.082Z,1.90
2023-11-20T03:52:10.061Z,1.80
2023-11-20T03:53:10.092Z,2.00
2023-11-20T03:54:10.002Z,2.50
2023-11-20T03:55:10.158Z,2.00
2023-11-20T03:56:10.060Z,2.50
2023-11-20T03:57:09.985Z,1.80
2023-11-20T03:58:10.045Z,2.00
2023-11-20T03:59:10.106Z,2.30
2023-11-20T04:00:10.626Z,1.70
2023-11-20T04:01:10.050Z,2.30
2023-11-20T04:02:09.893Z,1.70
2023-11-20T04:03:09.991Z,2.40
2023-11-20T04:04:09.996Z,1.80
2023-11-20T04:05:09.891Z,1.60
2023-11-20T04:06:09.906Z,1.70
2023-11-20T04:07:14.780Z,1.20
2023-11-20T04:08:09.806Z,1.50
2023-11-20T04:09:09.890Z,1.40
2023-11-20T04:10:09.812Z,2.00
2023-11-20T04:11:09.888Z,1.60
2023-11-20T04:12:09.805Z,2.00
2023-11-20T04:13:09.819Z,1.90
2023-11-20T04:14:09.728Z,1.60
2023-11-20T04:15:09.767Z,1.80
2023-11-20T04:16:09.804Z,1.70
2023-11-20T04:17:09.824Z,1.70
2023-11-20T04:18:09.802Z,1.50
2023-11-20T04:19:09.755Z,1.60
2023-11-20T04:20:09.799Z,1.60
2023-11-20T04:21:09.742Z,1.80
2023-11-20T04:22:09.836Z,2.00
2023-11-20T04:23:09.780Z,2.30
2023-11-20T04:24:09.738Z,2.70
2023-11-20T04:25:09.708Z,0.90
2023-11-20T04:26:09.592Z,2.40
2023-11-20T04:27:09.579Z,1.90
2023-11-20T04:28:09.787Z,2.10
2023-11-20T04:29:09.703Z,1.80
2023-11-20T04:30:09.555Z,2.00
2023-11-20T04:31:09.899Z,2.20
2023-11-20T04:32:09.652Z,1.70
2023-11-20T04:33:09.511Z,1.70
2023-11-20T04:34:09.485Z,1.80
2023-11-20T04:35:09.662Z,2.50
2023-11-20T04:36:09.518Z,1.80
2023-11-20T04:37:09.568Z,1.10
2023-11-20T04:38:09.420Z,1.60
2023-11-20T04:39:09.471Z,1.30
2023-11-20T04:40:09.585Z,1.80
2023-11-20T04:41:09.458Z,1.50
2023-11-20T04:42:09.361Z,2.10
2023-11-20T04:43:09.413Z,1.50
2023-11-20T04:44:09.477Z,1.70
2023-11-20T04:45:09.382Z,0.60
2023-11-20T04:46:09.399Z,2.20
2023-11-20T04:47:09.364Z,1.60
2023-11-20T04:48:09.293Z,2.00
2023-11-20T04:49:09.437Z,2.00
2023-11-20T04:50:09.309Z,2.00
2023-11-20T04:51:09.362Z,2.00
2023-11-20T04:52:09.347Z,1.90
2023-11-20T04:53:09.253Z,1.90
2023-11-20T04:54:09.372Z,2.00
2023-11-20T04:55:09.336Z,1.20
2023-11-20T04:56:09.248Z,1.80
2023-11-20T04:57:09.238Z,1.90
2023-11-20T04:58:09.349Z,1.30
2023-11-20T04:59:09.152Z,2.90
2023-11-20T05:00:09.255Z,2.30
2023-11-20T05:01:09.210Z,1.60
2023-11-20T05:02:09.273Z,1.40
2023-11-20T05:03:09.180Z,1.60
2023-11-20T05:04:09.260Z,1.90
2023-11-20T05:05:09.085Z,2.20
2023-11-20T05:06:09.157Z,2.70
2023-11-20T05:07:09.081Z,2.30
2023-11-20T05:08:09.029Z,2.20
2023-11-20T05:09:09.033Z,2.10
2023-11-20T05:10:09.067Z,2.20
2023-11-20T05:11:08.960Z,3.00
2023-11-20T05:12:09.041Z,2.00
2023-11-20T05:13:08.961Z,1.90
2023-11-20T05:14:08.950Z,2.20
2023-11-20T05:15:08.938Z,2.50
2023-11-20T05:16:09.052Z,1.70
2023-11-20T05:17:08.943Z,1.70
2023-11-20T05:18:09.024Z,1.90
2023-11-20T05:19:08.892Z,2.40
2023-11-20T05:20:08.885Z,1.40
2023-11-20T05:21:08.848Z,2.00
2023-11-20T05:22:08.952Z,1.90
2023-11-20T05:23:08.848Z,2.70
2023-11-20T05:24:08.891Z,1.50
2023-11-20T05:25:08.860Z,1.70
2023-11-20T05:26:08.801Z,2.30
2023-11-20T05:27:08.802Z,2.70
2023-11-20T05:28:08.881Z,2.20
2023-11-20T05:29:08.763Z,1.20
2023-11-20T05:30:08.773Z,2.30
2023-11-20T05:31:08.793Z,1.80
2023-11-20T05:32:08.902Z,2.30
2023-11-20T05:33:08.843Z,2.70
2023-11-20T05:34:08.775Z,1.80
2023-11-20T05:35:08.691Z,1.90
2023-11-20T05:36:08.725Z,2.80
2023-11-20T05:37:08.783Z,2.00
2023-11-20T05:38:08.672Z,1.90
2023-11-20T05:39:08.618Z,1.80
2023-11-20T05:40:08.792Z,2.70
2023-11-20T05:41:08.573Z,2.40
2023-11-20T05:42:08.621Z,1.80
2023-11-20T05:43:08.650Z,1.80
2023-11-20T05:44:08.645Z,1.90
2023-11-20T05:45:08.515Z,1.40
2023-11-20T05:46:08.719Z,1.40
2023-11-20T05:47:08.564Z,2.10
2023-11-20T05:48:08.650Z,2.20
2023-11-20T05:49:08.557Z,2.00
2023-11-20T05:50:08.499Z,1.10
2023-11-20T05:51:08.456Z,2.20
2023-11-20T05:52:08.489Z,2.40
2023-11-20T05:53:08.514Z,1.50
2023-11-20T05:54:08.576Z,2.40
2023-11-20T05:55:08.408Z,2.30
2023-11-20T05:56:08.412Z,2.40
2023-11-20T05:57:08.514Z,1.60
2023-11-20T05:58:08.484Z,1.90
2023-11-20T05:59:08.341Z,1.80
2023-11-20T06:00:08.468Z,2.40
2023-11-20T06:01:08.367Z,2.20
2023-11-20T06:02:08.412Z,2.00
2023-11-20T06:03:08.382Z,2.10
2023-11-20T06:04:08.364Z,2.30
2023-11-20T06:05:10.214Z,2.30
2023-11-20T06:06:08.510Z,2.20
2023-11-20T06:07:08.459Z,2.20
2023-11-20T06:08:08.295Z,2.00
2023-11-20T06:09:08.281Z,1.90
2023-11-20T06:10:08.433Z,1.30
2023-11-20T06:11:08.237Z,1.80
2023-11-20T06:12:08.236Z,2.50
2023-11-20T06:13:08.250Z,1.90
2023-11-20T06:14:08.277Z,2.60
2023-11-20T06:15:08.136Z,2.20
2023-11-20T06:16:08.261Z,2.00
2023-11-20T06:17:08.156Z,1.80
2023-11-20T06:18:08.196Z,2.00
2023-11-20T06:19:08.079Z,2.90
2023-11-20T06:20:08.078Z,1.50
2023-11-20T06:21:08.113Z,2.00
2023-11-20T06:22:08.284Z,1.60
2023-11-20T06:23:08.080Z,1.50
2023-11-20T06:24:08.045Z,1.50
2023-11-20T06:25:08.144Z,2.20
2023-11-20T06:26:08.083Z,2.30
2023-11-20T06:27:08.153Z,1.60
2023-11-20T06:28:08.103Z,2.80
2023-11-20T06:29:08.063Z,2.00
2023-11-20T06:30:08.065Z,2.40
2023-11-20T06:31:07.992Z,1.80
2023-11-20T06:32:08.250Z,1.80
2023-11-20T06:33:07.902Z,1.40
2023-11-20T06:34:08.028Z,1.70
2023-11-20T06:35:07.874Z,2.50
2023-11-20T06:36:07.989Z,2.00
2023-11-20T06:37:07.864Z,2.50
2023-11-20T06:38:07.840Z,2.30
2023-11-20T06:39:07.965Z,2.20
2023-11-20T06:40:07.990Z,2.40
2023-11-20T06:41:07.801Z,1.60
2023-11-20T06:42:07.807Z,2.50
2023-11-20T06:43:07.935Z,1.70
2023-11-20T06:44:07.791Z,0.90
2023-11-20T06:45:07.711Z,2.10
2023-11-20T06:46:07.864Z,2.30
2023-11-20T06:47:07.767Z,2.20
2023-11-20T06:48:07.852Z,2.10
2023-11-20T06:49:07.742Z,2.30
2023-11-20T06:50:07.682Z,2.20
2023-11-20T06:51:07.653Z,1.60
2023-11-20T06:52:07.833Z,1.60
2023-11-20T06:53:07.658Z,2.00
2023-11-20T06:54:07.706Z,1.80
2023-11-20T06:55:08.531Z,2.20
2023-11-20T06:56:07.650Z,1.70
2023-11-20T06:57:07.562Z,2.00
2023-11-20T06:58:07.714Z,2.40
2023-11-20T06:59:07.538Z,1.60
2023-11-20T07:00:07.630Z,2.20
2023-11-20T07:01:07.557Z,1.70
2023-11-20T07:02:07.567Z,1.60
2023-11-20T07:03:07.540Z,1.60
2023-11-20T07:04:07.593Z,1.40
2023-11-20T07:05:07.579Z,1.90
2023-11-20T07:06:07.567Z,2.00
2023-11-20T07:07:07.541Z,1.60
2023-11-20T07:08:07.494Z,1.20
2023-11-20T07:09:07.428Z,2.00
2023-11-20T07:10:07.460Z,1.20
2023-11-20T07:11:07.380Z,1.80
2023-11-20T07:12:07.435Z,0.70
2023-11-20T07:13:07.575Z,1.40
2023-11-20T07:14:07.416Z,2.00
2023-11-20T07:15:07.336Z,1.70
2023-11-20T07:16:07.400Z,1.70
2023-11-20T07:17:07.424Z,1.20
2023-11-20T07:18:07.483Z,2.00
2023-11-20T07:19:07.384Z,1.30
2023-11-20T07:20:07.323Z,1.30
2023-11-20T07:21:07.397Z,1.50
2023-11-20T07:22:07.346Z,1.40
2023-11-20T07:23:07.246Z,1.10
2023-11-20T07:24:07.285Z,1.10
2023-11-20T07:25:07.453Z,1.50
2023-11-20T07:26:07.278Z,1.30
2023-11-20T07:27:07.202Z,1.60
2023-11-20T07:28:07.297Z,2.10
2023-11-20T07:29:56.257Z,1.70
2023-11-20T07:30:08.268Z,0.90
2023-11-20T07:31:07.249Z,1.10
2023-11-20T07:32:07.286Z,1.80
2023-11-20T07:33:07.199Z,0.80
2023-11-20T07:34:07.241Z,1.80
2023-11-20T07:35:07.074Z,2.00
2023-11-20T07:36:07.163Z,1.80
2023-11-20T07:37:07.126Z,2.00
2023-11-20T07:38:07.074Z,1.70
2023-11-20T07:39:07.184Z,1.70
2023-11-20T07:40:07.095Z,1.40
2023-11-20T07:41:07.018Z,2.30
2023-11-20T07:42:07.048Z,0.90
2023-11-20T07:43:07.178Z,1.50
2023-11-20T07:44:06.984Z,1.70
2023-11-20T07:45:07.021Z,1.20
2023-11-20T07:46:07.086Z,1.40
2023-11-20T07:47:06.952Z,2.20
2023-11-20T07:48:07.142Z,1.50
2023-11-20T07:49:06.935Z,1.90
2023-11-20T07:50:06.942Z,1.70
2023-11-20T07:51:06.930Z,1.60
2023-11-20T07:52:07.022Z,1.50
2023-11-20T07:53:06.884Z,1.40
2023-11-20T07:54:06.950Z,1.40
2023-11-20T07:55:06.858Z,1.50
2023-11-20T07:56:06.849Z,1.60
2023-11-20T07:57:06.928Z,1.80
2023-11-20T07:58:06.927Z,1.40
2023-11-20T07:59:06.779Z,2.00
2023-11-20T08:00:06.798Z,1.50
2023-11-20T08:01:06.808Z,1.60
2023-11-20T08:02:06.971Z,1.70
2023-11-20T08:03:06.813Z,1.60
2023-11-20T08:04:06.865Z,1.70
2023-11-20T08:05:06.980Z,2.30
2023-11-20T08:06:16.857Z,2.00
2023-11-20T08:07:07.665Z,2.10
2023-11-20T08:08:06.912Z,2.20
2023-11-20T08:09:06.716Z,2.10
2023-11-20T08:10:07.274Z,2.70
2023-11-20T08:11:30.606Z,2.10
2023-11-20T08:12:07.684Z,2.00
2023-11-20T08:13:06.696Z,2.50
2023-11-20T08:14:06.682Z,3.20
2023-11-20T08:15:06.587Z,2.50
2023-11-20T08:16:06.715Z,2.10
2023-11-20T08:17:06.633Z,3.10
2023-11-20T08:18:06.610Z,2.60
2023-11-20T08:19:06.510Z,2.50
2023-11-20T08:20:06.591Z,1.90
2023-11-20T08:21:06.508Z,2.20
2023-11-20T08:22:06.490Z,3.10
2023-11-20T08:23:06.534Z,3.20
2023-11-20T08:24:06.469Z,3.10
2023-11-20T08:25:06.567Z,2.70
2023-11-20T08:26:06.518Z,2.70
2023-11-20T08:27:06.465Z,3.20
2023-11-20T08:28:06.525Z,2.90
2023-11-20T08:29:06.367Z,3.10
2023-11-20T08:30:06.710Z,2.40
2023-11-20T08:31:06.466Z,2.20
2023-11-20T08:32:06.390Z,2.00
2023-11-20T08:33:07.039Z,2.10
2023-11-20T08:34:06.498Z,1.80
2023-11-20T08:35:06.277Z,1.90
2023-11-20T08:36:06.302Z,2.80
2023-11-20T08:37:06.543Z,1.80
2023-11-20T08:38:06.305Z,2.30
2023-11-20T08:39:06.239Z,2.00
2023-11-20T08:40:06.285Z,2.00
2023-11-20T08:41:06.174Z,1.90
2023-11-20T08:42:06.207Z,1.70
2023-11-20T08:43:06.217Z,1.50
2023-11-20T08:44:06.257Z,2.00
2023-11-20T08:45:06.465Z,2.00
2023-11-20T08:46:12.903Z,2.10
2023-11-20T08:47:07.230Z,2.10
2023-11-20T08:48:06.247Z,2.10
2023-11-20T08:49:06.183Z,2.40
2023-11-20T08:50:06.171Z,2.00
2023-11-20T08:51:06.115Z,2.40
2023-11-20T08:52:08.387Z,1.70
2023-11-20T08:53:06.032Z,2.20
2023-11-20T08:54:06.141Z,2.00
2023-11-20T08:55:06.118Z,2.70
2023-11-20T08:56:06.091Z,2.80
2023-11-20T08:57:06.082Z,2.30
2023-11-20T08:58:06.068Z,2.10
2023-11-20T08:59:05.990Z,1.90
2023-11-20T09:00:06.126Z,2.20
2023-11-20T09:01:06.052Z,2.20
2023-11-20T09:02:05.971Z,2.10
2023-11-20T09:03:06.059Z,1.90
2023-11-20T09:04:06.078Z,2.10
2023-11-20T09:05:08.245Z,2.40
2023-11-20T09:06:05.879Z,1.70
2023-11-20T09:07:05.930Z,1.90
2023-11-20T09:08:05.824Z,1.60
2023-11-20T09:09:05.900Z,1.70
2023-11-20T09:10:05.861Z,1.80
2023-11-20T09:11:05.855Z,1.40
2023-11-20T09:12:05.801Z,2.30
2023-11-20T09:13:07.087Z,1.90
2023-11-20T09:14:05.796Z,1.60
2023-11-20T09:15:06.007Z,1.20
2023-11-20T09:16:05.817Z,1.70
2023-11-20T09:17:05.780Z,2.10
2023-11-20T09:18:05.826Z,2.10
2023-11-20T09:19:05.829Z,2.00
2023-11-20T09:20:05.669Z,1.50
2023-11-20T09:21:05.786Z,2.30
2023-11-20T09:22:05.753Z,1.50
2023-11-20T09:23:13.167Z,2.20
2023-11-20T09:24:05.618Z,2.10
2023-11-20T09:25:06.198Z,1.80
2023-11-20T09:26:05.575Z,1.70
2023-11-20T09:27:05.642Z,1.60
2023-11-20T09:28:05.624Z,1.90
2023-11-20T09:29:05.645Z,1.50
2023-11-20T09:30:05.551Z,1.90
2023-11-20T09:31:05.615Z,1.70
2023-11-20T09:32:05.644Z,1.30
2023-11-20T09:33:05.652Z,1.80
2023-11-20T09:34:05.615Z,2.10
2023-11-20T09:35:07.641Z,2.00
2023-11-20T09:36:05.570Z,1.40
2023-11-20T09:37:05.513Z,1.20
2023-11-20T09:38:05.439Z,1.80
2023-11-20T09:39:05.450Z,2.00
2023-11-20T09:40:05.428Z,2.30
2023-11-20T09:41:05.451Z,1.60
2023-11-20T09:42:05.573Z,1.60
2023-11-20T09:43:05.471Z,1.70
2023-11-20T09:44:05.403Z,1.70
2023-11-20T09:45:05.519Z,1.30
2023-11-20T09:46:05.390Z,1.10
2023-11-20T09:47:05.583Z,2.20
2023-11-20T09:48:05.493Z,2.20
2023-11-20T09:49:05.826Z,1.70
2023-11-20T09:50:05.416Z,1.80
2023-11-20T09:51:12.225Z,1.40
2023-11-20T09:52:06.324Z,1.70
2023-11-20T09:53:05.305Z,1.80
2023-11-20T09:54:05.279Z,1.50
2023-11-20T09:55:05.333Z,1.60
2023-11-20T09:56:05.199Z,1.40
2023-11-20T09:57:05.240Z,2.00
2023-11-20T09:58:05.272Z,1.20
2023-11-20T09:59:05.208Z,0.60
2023-11-20T10:00:05.164Z,1.20
2023-11-20T10:01:05.166Z,1.50
2023-11-20T10:02:05.247Z,1.40
2023-11-20T10:03:05.225Z,1.00
2023-11-20T10:04:05.197Z,1.20
2023-11-20T10:05:05.197Z,1.50
2023-11-20T10:06:05.162Z,1.50
2023-11-20T10:07:05.257Z,1.30
2023-11-20T10:08:05.101Z,1.50
2023-11-20T10:09:05.127Z,1.40
2023-11-20T10:10:05.139Z,1.50
2023-11-20T10:11:05.044Z,1.50
2023-11-20T10:12:05.019Z,1.30
2023-11-20T10:13:05.023Z,1.40
2023-11-20T10:14:04.951Z,1.20
2023-11-20T10:15:04.998Z,1.30
2023-11-20T10:16:05.214Z,1.30
2023-11-20T10:17:04.970Z,1.20
2023-11-20T10:18:04.936Z,1.40
2023-11-20T10:19:04.937Z,1.30
2023-11-20T10:20:04.900Z,1.10
2023-11-20T10:21:04.980Z,1.40
2023-11-20T10:22:04.870Z,1.40
2023-11-20T10:23:04.871Z,1.80
2023-11-20T10:24:04.856Z,1.40
2023-11-20T10:25:04.917Z,1.20
2023-11-20T10:26:04.847Z,0.80
2023-11-20T10:27:04.988Z,1.50
2023-11-20T10:28:04.820Z,1.00
2023-11-20T10:29:04.784Z,0.90
2023-11-20T10:30:04.837Z,1.90
2023-11-20T10:31:04.804Z,1.00
2023-11-20T10:32:04.965Z,0.90
2023-11-20T10:33:04.826Z,1.20
2023-11-20T10:34:04.720Z,1.10
2023-11-20T10:35:06.240Z,1.30
2023-11-20T10:36:04.685Z,1.30
2023-11-20T10:37:04.712Z,1.60
2023-11-20T10:38:04.629Z,1.20
2023-11-20T10:39:04.780Z,1.20
2023-11-20T10:40:04.758Z,1.30
2023-11-20T10:41:04.649Z,1.20
2023-11-20T10:42:04.629Z,2.00
2023-11-20T10:43:04.615Z,1.20
2023-11-20T10:44:04.592Z,1.50
2023-11-20T10:45:04.645Z,1.30
2023-11-20T10:46:04.570Z,1.00
2023-11-20T10:47:08.648Z,1.90
2023-11-20T10:48:04.539Z,1.10
2023-11-20T10:49:04.555Z,1.20
2023-11-20T10:50:04.506Z,1.30
2023-11-20T10:51:04.547Z,1.20
2023-11-20T10:52:04.518Z,0.90
2023-11-20T10:53:04.508Z,0.50
2023-11-20T10:54:04.485Z,1.00
2023-11-20T10:55:04.468Z,0.90
2023-11-20T10:56:04.423Z,1.40
2023-11-20T10:57:04.756Z,1.30
2023-11-20T10:58:04.424Z,1.20
2023-11-20T10:59:04.439Z,1.20
2023-11-20T11:00:04.556Z,1.40
2023-11-20T11:01:04.504Z,1.30
2023-11-20T11:02:04.540Z,1.00
2023-11-20T11:03:12.516Z,0.60
2023-11-20T11:04:05.519Z,0.80
2023-11-20T11:05:04.329Z,1.20
2023-11-20T11:06:04.406Z,1.10
2023-11-20T11:07:04.343Z,1.20
2023-11-20T11:08:04.329Z,1.10
2023-11-20T11:09:04.384Z,0.90
2023-11-20T11:10:04.273Z,1.30
2023-11-20T11:11:04.353Z,1.60
2023-11-20T11:12:04.203Z,0.90
2023-11-20T11:13:04.247Z,1.20
2023-11-20T11:14:04.179Z,1.10
2023-11-20T11:15:04.335Z,1.30
2023-11-20T11:16:04.165Z,1.00
2023-11-20T11:17:04.167Z,0.90
2023-11-20T11:18:04.164Z,1.20
2023-11-20T11:19:04.198Z,1.20
2023-11-20T11:20:04.324Z,1.30
2023-11-20T11:21:04.256Z,1.20
2023-11-20T11:22:04.067Z,1.20
2023-11-20T11:23:05.820Z,1.30
2023-11-20T11:24:04.098Z,1.30
2023-11-20T11:25:04.270Z,1.70
2023-11-20T11:26:04.120Z,1.00
2023-11-20T11:27:04.154Z,1.00
2023-11-20T11:28:04.099Z,1.00
2023-11-20T11:29:04.013Z,1.00
2023-11-20T11:30:03.994Z,1.30
2023-11-20T11:31:04.259Z,1.30
2023-11-20T11:32:04.119Z,1.80
2023-11-20T11:33:04.080Z,1.00
2023-11-20T11:34:04.021Z,0.80
2023-11-20T11:35:03.908Z,0.90
2023-11-20T11:36:03.897Z,0.80
2023-11-20T11:37:03.924Z,0.60
2023-11-20T11:38:03.889Z,0.80
2023-11-20T11:39:03.992Z,0.90
2023-11-20T11:40:03.953Z,1.10
2023-11-20T11:41:03.824Z,1.60
2023-11-20T11:42:03.833Z,1.00
2023-11-20T11:43:03.803Z,0.90
2023-11-20T11:44:03.793Z,1.00
2023-11-20T11:45:03.986Z,0.80
2023-11-20T11:46:03.756Z,1.10
2023-11-20T11:47:03.806Z,0.80
2023-11-20T11:48:03.834Z,1.40
2023-11-20T11:49:03.807Z,0.80
2023-11-20T11:50:05.429Z,1.10
2023-11-20T11:51:03.752Z,0.80
2023-11-20T11:52:03.710Z,1.00
2023-11-20T11:53:03.734Z,0.70
2023-11-20T11:54:03.606Z,1.00
2023-11-20T11:55:03.742Z,0.50
2023-11-20T11:56:03.625Z,0.70
2023-11-20T11:57:03.721Z,0.70
2023-11-20T11:58:03.921Z,0.70
2023-11-20T11:59:03.659Z,0.80
2023-11-20T12:00:03.636Z,1.00
2023-11-20T12:01:03.587Z,0.50
2023-11-20T12:02:03.533Z,0.60
2023-11-20T12:03:03.720Z,1.10
2023-11-20T12:04:03.687Z,0.60
2023-11-20T12:05:03.780Z,0.80
2023-11-20T12:06:03.510Z,0.70
2023-11-20T12:07:03.678Z,0.70
2023-11-20T12:08:03.622Z,0.80
2023-11-20T12:09:03.637Z,0.70
2023-11-20T12:10:03.492Z,0.70
2023-11-20T12:11:03.570Z,0.70
2023-11-20T12:12:03.475Z,0.90
2023-11-20T12:13:03.697Z,1.00
2023-11-20T12:14:03.389Z,0.50
2023-11-20T12:15:03.474Z,0.60
2023-11-20T12:16:03.438Z,0.70
2023-11-20T12:17:03.502Z,0.80
2023-11-20T12:18:03.598Z,0.80
2023-11-20T12:19:03.438Z,0.80
2023-11-20T12:20:03.298Z,1.00
2023-11-20T12:21:03.283Z,0.50
2023-11-20T12:22:03.346Z,1.00
2023-11-20T12:23:03.235Z,1.40
2023-11-20T12:24:03.219Z,0.70
2023-11-20T12:25:03.242Z,0.80
2023-11-20T12:26:03.170Z,0.80
2023-11-20T12:27:03.196Z,0.90
2023-11-20T12:28:03.249Z,0.70
2023-11-20T12:29:03.199Z,0.70
2023-11-20T12:30:03.282Z,0.60
2023-11-20T12:31:03.168Z,0.70
2023-11-20T12:32:05.095Z,0.30
2023-11-20T12:33:03.255Z,0.50
2023-11-20T12:34:03.226Z,0.60
2023-11-20T12:35:03.157Z,0.60
2023-11-20T12:36:03.168Z,0.80
2023-11-20T12:37:03.192Z,0.90
2023-11-20T12:38:03.043Z,0.90
2023-11-20T12:39:03.035Z,0.50
2023-11-20T12:40:03.025Z,0.70
2023-11-20T12:41:03.053Z,0.50
2023-11-20T12:42:03.167Z,0.40
2023-11-20T12:43:03.074Z,1.10
2023-11-20T12:44:02.938Z,0.70
2023-11-20T12:45:02.957Z,0.50
2023-11-20T12:46:02.955Z,0.70
2023-11-20T12:47:03.055Z,0.60
2023-11-20T12:48:02.984Z,0.50
2023-11-20T12:49:02.921Z,0.30
2023-11-20T12:50:02.909Z,0.50
2023-11-20T12:51:03.053Z,0.60
2023-11-20T12:52:02.909Z,0.60
2023-11-20T12:53:03.047Z,0.50
2023-11-20T12:54:02.857Z,0.50
2023-11-20T12:55:02.979Z,0.70
2023-11-20T12:56:03.135Z,0.30
2023-11-20T12:57:05.956Z,0.70
2023-11-20T12:58:02.925Z,0.60
2023-11-20T12:59:02.899Z,0.70
2023-11-20T13:00:02.818Z,0.30
2023-11-20T13:01:02.869Z,0.30
2023-11-20T13:02:02.785Z,0.60
2023-11-20T13:03:02.769Z,0.40
2023-11-20T13:04:02.876Z,0.70
2023-11-20T13:05:08.324Z,0.50
2023-11-20T13:06:02.690Z,0.60
2023-11-20T13:07:02.742Z,0.60
2023-11-20T13:08:02.674Z,0.60
2023-11-20T13:09:02.687Z,0.80
2023-11-20T13:10:02.590Z,0.40
2023-11-20T13:11:02.707Z,0.80
2023-11-20T13:12:02.659Z,0.70
2023-11-20T13:13:02.651Z,0.80
2023-11-20T13:14:02.575Z,0.60
2023-11-20T13:15:02.525Z,0.70
2023-11-20T13:16:02.608Z,0.70
2023-11-20T13:17:02.578Z,1.00
2023-11-20T13:18:02.631Z,0.90